sensor_id;sensor_type;location;lat;lon;timestamp;temperature;humidity
20489;DHT22;10403;54.092;12.122;2022-08-24T00:02:01;19.80;93.10
20489;DHT22;10403;54.092;12.122;2022-08-24T00:04:30;19.80;93.20
20489;DHT22;10403;54.092;12.122;2022-08-24T00:06:59;19.70;93.30
20489;DHT22;10403;54.092;12.122;2022-08-24T00:09:29;19.70;93.40
20489;DHT22;10403;54.092;12.122;2022-08-24T00:11:57;19.60;93.50
20489;DHT22;10403;54.092;12.122;2022-08-24T00:14:25;19.60;93.70
20489;DHT22;10403;54.092;12.122;2022-08-24T00:16:52;19.60;93.80
20489;DHT22;10403;54.092;12.122;2022-08-24T00:19:20;19.50;93.80
20489;DHT22;10403;54.092;12.122;2022-08-24T00:21:48;19.50;93.90
20489;DHT22;10403;54.092;12.122;2022-08-24T00:24:15;19.40;94.00
20489;DHT22;10403;54.092;12.122;2022-08-24T00:26:43;19.40;94.20
20489;DHT22;10403;54.092;12.122;2022-08-24T00:29:18;19.40;94.30
20489;DHT22;10403;54.092;12.122;2022-08-24T00:31:47;19.40;94.30
20489;DHT22;10403;54.092;12.122;2022-08-24T00:34:15;19.40;94.40
20489;DHT22;10403;54.092;12.122;2022-08-24T00:36:44;19.40;94.40
20489;DHT22;10403;54.092;12.122;2022-08-24T00:39:12;19.50;94.50
20489;DHT22;10403;54.092;12.122;2022-08-24T00:41:45;19.50;94.60
20489;DHT22;10403;54.092;12.122;2022-08-24T00:44:14;19.50;94.80
20489;DHT22;10403;54.092;12.122;2022-08-24T00:46:58;19.40;94.80
20489;DHT22;10403;54.092;12.122;2022-08-24T00:49:48;19.40;94.90
20489;DHT22;10403;54.092;12.122;2022-08-24T00:52:42;19.40;95.00
20489;DHT22;10403;54.092;12.122;2022-08-24T00:55:28;19.40;95.10
20489;DHT22;10403;54.092;12.122;2022-08-24T00:58:03;19.40;95.10
20489;DHT22;10403;54.092;12.122;2022-08-24T01:00:47;19.40;95.20
20489;DHT22;10403;54.092;12.122;2022-08-24T01:03:20;19.40;95.20
20489;DHT22;10403;54.092;12.122;2022-08-24T01:05:49;19.40;95.30
20489;DHT22;10403;54.092;12.122;2022-08-24T01:08:16;19.40;95.30
20489;DHT22;10403;54.092;12.122;2022-08-24T01:10:59;19.30;95.30
20489;DHT22;10403;54.092;12.122;2022-08-24T01:13:30;19.30;95.40
20489;DHT22;10403;54.092;12.122;2022-08-24T01:16:01;19.30;95.50
20489;DHT22;10403;54.092;12.122;2022-08-24T01:18:32;19.30;95.50
20489;DHT22;10403;54.092;12.122;2022-08-24T01:21:26;19.30;95.50
20489;DHT22;10403;54.092;12.122;2022-08-24T01:24:05;19.20;95.60
20489;DHT22;10403;54.092;12.122;2022-08-24T01:26:40;19.30;95.60
20489;DHT22;10403;54.092;12.122;2022-08-24T01:29:24;19.20;95.60
20489;DHT22;10403;54.092;12.122;2022-08-24T01:31:57;19.20;95.70
20489;DHT22;10403;54.092;12.122;2022-08-24T01:34:24;19.20;95.70
20489;DHT22;10403;54.092;12.122;2022-08-24T01:36:53;19.10;95.70
20489;DHT22;10403;54.092;12.122;2022-08-24T01:39:34;19.10;95.80
20489;DHT22;10403;54.092;12.122;2022-08-24T01:42:03;19.10;96.00
20489;DHT22;10403;54.092;12.122;2022-08-24T01:44:32;19.10;96.00
20489;DHT22;10403;54.092;12.122;2022-08-24T01:47:04;19.10;96.10
20489;DHT22;10403;54.092;12.122;2022-08-24T01:49:36;19.10;96.10
20489;DHT22;10403;54.092;12.122;2022-08-24T01:52:10;19.10;96.10
20489;DHT22;10403;54.092;12.122;2022-08-24T01:54:45;19.10;96.10
20489;DHT22;10403;54.092;12.122;2022-08-24T01:57:12;19.00;96.10
20489;DHT22;10403;54.092;12.122;2022-08-24T01:59:43;19.10;96.10
20489;DHT22;10403;54.092;12.122;2022-08-24T02:02:17;19.00;96.10
20489;DHT22;10403;54.092;12.122;2022-08-24T02:04:47;19.00;96.20
20489;DHT22;10403;54.092;12.122;2022-08-24T02:07:14;19.00;96.20
20489;DHT22;10403;54.092;12.122;2022-08-24T02:09:41;18.90;96.20
20489;DHT22;10403;54.092;12.122;2022-08-24T02:12:08;18.90;96.20
20489;DHT22;10403;54.092;12.122;2022-08-24T02:14:36;18.90;96.30
20489;DHT22;10403;54.092;12.122;2022-08-24T02:17:05;18.90;96.40
20489;DHT22;10403;54.092;12.122;2022-08-24T02:19:34;18.90;96.40
20489;DHT22;10403;54.092;12.122;2022-08-24T02:22:01;18.90;96.40
20489;DHT22;10403;54.092;12.122;2022-08-24T02:24:29;18.90;96.50
20489;DHT22;10403;54.092;12.122;2022-08-24T02:27:00;18.90;96.50
20489;DHT22;10403;54.092;12.122;2022-08-24T02:29:32;18.90;96.40
20489;DHT22;10403;54.092;12.122;2022-08-24T02:31:59;18.90;96.40
20489;DHT22;10403;54.092;12.122;2022-08-24T02:34:27;18.90;96.50
20489;DHT22;10403;54.092;12.122;2022-08-24T02:36:54;18.90;96.50
20489;DHT22;10403;54.092;12.122;2022-08-24T02:39:21;18.90;96.50
20489;DHT22;10403;54.092;12.122;2022-08-24T02:41:50;18.90;96.50
20489;DHT22;10403;54.092;12.122;2022-08-24T02:44:18;18.80;96.60
20489;DHT22;10403;54.092;12.122;2022-08-24T02:46:45;18.80;96.70
20489;DHT22;10403;54.092;12.122;2022-08-24T02:49:12;18.80;96.80
20489;DHT22;10403;54.092;12.122;2022-08-24T02:51:43;18.70;96.80
20489;DHT22;10403;54.092;12.122;2022-08-24T02:54:13;18.70;96.90
20489;DHT22;10403;54.092;12.122;2022-08-24T02:56:46;18.70;97.00
20489;DHT22;10403;54.092;12.122;2022-08-24T02:59:13;18.60;97.10
20489;DHT22;10403;54.092;12.122;2022-08-24T03:01:43;18.60;97.20
20489;DHT22;10403;54.092;12.122;2022-08-24T03:04:10;18.60;97.20
20489;DHT22;10403;54.092;12.122;2022-08-24T03:06:38;18.60;97.30
20489;DHT22;10403;54.092;12.122;2022-08-24T03:09:06;18.60;97.40
20489;DHT22;10403;54.092;12.122;2022-08-24T03:11:34;18.50;97.30
20489;DHT22;10403;54.092;12.122;2022-08-24T03:14:02;18.50;97.40
20489;DHT22;10403;54.092;12.122;2022-08-24T03:16:29;18.50;97.40
20489;DHT22;10403;54.092;12.122;2022-08-24T03:18:59;18.60;97.50
20489;DHT22;10403;54.092;12.122;2022-08-24T03:21:26;18.50;97.60
20489;DHT22;10403;54.092;12.122;2022-08-24T03:23:53;18.50;97.60
20489;DHT22;10403;54.092;12.122;2022-08-24T03:26:21;18.50;97.60
20489;DHT22;10403;54.092;12.122;2022-08-24T03:28:48;18.50;97.70
20489;DHT22;10403;54.092;12.122;2022-08-24T03:31:18;18.50;97.70
20489;DHT22;10403;54.092;12.122;2022-08-24T03:33:45;18.50;97.80
20489;DHT22;10403;54.092;12.122;2022-08-24T03:36:12;18.50;97.90
20489;DHT22;10403;54.092;12.122;2022-08-24T03:38:41;18.50;97.90
20489;DHT22;10403;54.092;12.122;2022-08-24T03:41:09;18.50;97.90
20489;DHT22;10403;54.092;12.122;2022-08-24T03:43:38;18.50;97.70
20489;DHT22;10403;54.092;12.122;2022-08-24T03:46:14;18.50;97.70
20489;DHT22;10403;54.092;12.122;2022-08-24T03:48:46;18.50;97.70
20489;DHT22;10403;54.092;12.122;2022-08-24T03:51:18;18.40;97.70
20489;DHT22;10403;54.092;12.122;2022-08-24T03:53:46;18.50;97.90
20489;DHT22;10403;54.092;12.122;2022-08-24T03:56:13;18.50;97.90
20489;DHT22;10403;54.092;12.122;2022-08-24T03:58:41;18.50;97.80
20489;DHT22;10403;54.092;12.122;2022-08-24T04:01:09;18.50;97.80
20489;DHT22;10403;54.092;12.122;2022-08-24T04:03:38;18.50;97.90
20489;DHT22;10403;54.092;12.122;2022-08-24T04:06:08;18.50;97.90
20489;DHT22;10403;54.092;12.122;2022-08-24T04:08:38;18.50;97.90
20489;DHT22;10403;54.092;12.122;2022-08-24T04:11:15;18.50;98.00
20489;DHT22;10403;54.092;12.122;2022-08-24T04:13:45;18.50;98.20
20489;DHT22;10403;54.092;12.122;2022-08-24T04:16:15;18.50;98.20
20489;DHT22;10403;54.092;12.122;2022-08-24T04:18:44;18.60;98.40
20489;DHT22;10403;54.092;12.122;2022-08-24T04:21:24;18.50;98.40
20489;DHT22;10403;54.092;12.122;2022-08-24T04:23:56;18.60;98.50
20489;DHT22;10403;54.092;12.122;2022-08-24T04:26:25;18.60;98.50
20489;DHT22;10403;54.092;12.122;2022-08-24T04:29:13;18.60;98.60
20489;DHT22;10403;54.092;12.122;2022-08-24T04:31:42;18.60;98.70
20489;DHT22;10403;54.092;12.122;2022-08-24T04:34:12;18.60;98.70
20489;DHT22;10403;54.092;12.122;2022-08-24T04:36:42;18.60;98.80
20489;DHT22;10403;54.092;12.122;2022-08-24T04:39:11;18.60;98.80
20489;DHT22;10403;54.092;12.122;2022-08-24T04:41:38;18.70;99.00
20489;DHT22;10403;54.092;12.122;2022-08-24T04:44:07;18.70;99.00
20489;DHT22;10403;54.092;12.122;2022-08-24T04:46:35;18.80;99.10
20489;DHT22;10403;54.092;12.122;2022-08-24T04:49:02;18.80;99.30
20489;DHT22;10403;54.092;12.122;2022-08-24T04:51:30;19.00;99.70
20489;DHT22;10403;54.092;12.122;2022-08-24T04:54:02;19.30;99.70
20489;DHT22;10403;54.092;12.122;2022-08-24T04:56:30;19.60;99.60
20489;DHT22;10403;54.092;12.122;2022-08-24T04:58:57;19.80;99.30
20489;DHT22;10403;54.092;12.122;2022-08-24T05:01:26;19.90;99.00
20489;DHT22;10403;54.092;12.122;2022-08-24T05:03:55;20.10;98.70
20489;DHT22;10403;54.092;12.122;2022-08-24T05:06:25;20.20;98.40
20489;DHT22;10403;54.092;12.122;2022-08-24T05:08:55;20.40;97.90
20489;DHT22;10403;54.092;12.122;2022-08-24T05:11:23;20.50;97.60
20489;DHT22;10403;54.092;12.122;2022-08-24T05:13:54;20.70;97.30
20489;DHT22;10403;54.092;12.122;2022-08-24T05:16:22;20.70;97.00
20489;DHT22;10403;54.092;12.122;2022-08-24T05:18:51;20.90;96.90
20489;DHT22;10403;54.092;12.122;2022-08-24T05:21:20;21.00;96.60
20489;DHT22;10403;54.092;12.122;2022-08-24T05:23:49;21.10;96.40
20489;DHT22;10403;54.092;12.122;2022-08-24T05:26:20;21.20;96.20
20489;DHT22;10403;54.092;12.122;2022-08-24T05:28:56;21.30;96.00
20489;DHT22;10403;54.092;12.122;2022-08-24T05:31:28;21.40;95.80
20489;DHT22;10403;54.092;12.122;2022-08-24T05:33:58;21.50;95.70
20489;DHT22;10403;54.092;12.122;2022-08-24T05:36:32;21.50;95.40
20489;DHT22;10403;54.092;12.122;2022-08-24T05:39:06;21.60;95.20
20489;DHT22;10403;54.092;12.122;2022-08-24T05:41:55;21.50;94.80
20489;DHT22;10403;54.092;12.122;2022-08-24T05:44:22;21.30;94.70
20489;DHT22;10403;54.092;12.122;2022-08-24T05:46:57;21.20;94.80
20489;DHT22;10403;54.092;12.122;2022-08-24T05:49:26;21.10;94.90
20489;DHT22;10403;54.092;12.122;2022-08-24T05:51:53;21.00;95.00
20489;DHT22;10403;54.092;12.122;2022-08-24T05:54:21;20.90;95.10
20489;DHT22;10403;54.092;12.122;2022-08-24T05:56:49;20.90;95.30
20489;DHT22;10403;54.092;12.122;2022-08-24T05:59:16;20.80;95.50
20489;DHT22;10403;54.092;12.122;2022-08-24T06:01:45;20.70;95.60
20489;DHT22;10403;54.092;12.122;2022-08-24T06:04:13;20.60;95.70
20489;DHT22;10403;54.092;12.122;2022-08-24T06:06:40;20.70;95.90
20489;DHT22;10403;54.092;12.122;2022-08-24T06:09:10;20.60;95.90
20489;DHT22;10403;54.092;12.122;2022-08-24T06:11:39;20.60;96.10
20489;DHT22;10403;54.092;12.122;2022-08-24T06:14:11;20.50;96.10
20489;DHT22;10403;54.092;12.122;2022-08-24T06:16:42;20.50;96.20
20489;DHT22;10403;54.092;12.122;2022-08-24T06:19:13;20.50;96.40
20489;DHT22;10403;54.092;12.122;2022-08-24T06:21:43;20.60;96.50
20489;DHT22;10403;54.092;12.122;2022-08-24T06:24:13;20.60;96.40
20489;DHT22;10403;54.092;12.122;2022-08-24T06:26:43;20.60;96.40
20489;DHT22;10403;54.092;12.122;2022-08-24T06:29:32;20.70;96.50
20489;DHT22;10403;54.092;12.122;2022-08-24T06:31:59;20.70;96.50
20489;DHT22;10403;54.092;12.122;2022-08-24T06:34:26;20.80;96.50
20489;DHT22;10403;54.092;12.122;2022-08-24T06:36:54;20.80;96.50
20489;DHT22;10403;54.092;12.122;2022-08-24T06:39:22;20.90;96.60
20489;DHT22;10403;54.092;12.122;2022-08-24T06:41:51;21.00;96.60
20489;DHT22;10403;54.092;12.122;2022-08-24T06:44:18;21.10;96.50
20489;DHT22;10403;54.092;12.122;2022-08-24T06:46:45;21.20;96.50
20489;DHT22;10403;54.092;12.122;2022-08-24T06:49:32;21.20;96.40
20489;DHT22;10403;54.092;12.122;2022-08-24T06:51:59;21.40;96.40
20489;DHT22;10403;54.092;12.122;2022-08-24T06:54:26;21.40;96.30
20489;DHT22;10403;54.092;12.122;2022-08-24T06:56:54;21.50;96.20
20489;DHT22;10403;54.092;12.122;2022-08-24T06:59:22;21.50;96.10
20489;DHT22;10403;54.092;12.122;2022-08-24T07:01:49;21.60;96.20
20489;DHT22;10403;54.092;12.122;2022-08-24T07:04:16;21.60;96.20
20489;DHT22;10403;54.092;12.122;2022-08-24T07:06:44;21.70;96.20
20489;DHT22;10403;54.092;12.122;2022-08-24T07:09:12;21.80;96.20
20489;DHT22;10403;54.092;12.122;2022-08-24T07:11:39;21.80;96.20
20489;DHT22;10403;54.092;12.122;2022-08-24T07:14:07;21.90;96.20
20489;DHT22;10403;54.092;12.122;2022-08-24T07:16:34;22.00;96.20
20489;DHT22;10403;54.092;12.122;2022-08-24T07:19:03;22.00;96.10
20489;DHT22;10403;54.092;12.122;2022-08-24T07:21:31;22.00;96.20
20489;DHT22;10403;54.092;12.122;2022-08-24T07:23:59;22.00;96.30
20489;DHT22;10403;54.092;12.122;2022-08-24T07:26:29;22.00;96.40
20489;DHT22;10403;54.092;12.122;2022-08-24T07:29:00;22.10;96.60
20489;DHT22;10403;54.092;12.122;2022-08-24T07:31:34;22.20;96.60
20489;DHT22;10403;54.092;12.122;2022-08-24T07:34:05;22.30;96.50
20489;DHT22;10403;54.092;12.122;2022-08-24T07:36:35;22.40;96.50
20489;DHT22;10403;54.092;12.122;2022-08-24T07:39:10;22.50;96.50
20489;DHT22;10403;54.092;12.122;2022-08-24T07:41:40;22.70;96.60
20489;DHT22;10403;54.092;12.122;2022-08-24T07:44:29;22.80;96.50
20489;DHT22;10403;54.092;12.122;2022-08-24T07:46:57;23.00;96.40
20489;DHT22;10403;54.092;12.122;2022-08-24T07:50:00;23.00;96.10
20489;DHT22;10403;54.092;12.122;2022-08-24T07:52:28;23.00;96.00
20489;DHT22;10403;54.092;12.122;2022-08-24T07:54:55;23.10;96.00
20489;DHT22;10403;54.092;12.122;2022-08-24T07:57:22;23.10;95.80
20489;DHT22;10403;54.092;12.122;2022-08-24T07:59:50;23.10;95.80
20489;DHT22;10403;54.092;12.122;2022-08-24T08:02:17;23.20;95.80
20489;DHT22;10403;54.092;12.122;2022-08-24T08:04:45;23.20;95.70
20489;DHT22;10403;54.092;12.122;2022-08-24T08:07:12;23.20;95.70
20489;DHT22;10403;54.092;12.122;2022-08-24T08:09:40;23.40;95.60
20489;DHT22;10403;54.092;12.122;2022-08-24T08:12:08;23.40;95.40
20489;DHT22;10403;54.092;12.122;2022-08-24T08:14:35;23.40;95.20
20489;DHT22;10403;54.092;12.122;2022-08-24T08:17:04;23.30;95.20
20489;DHT22;10403;54.092;12.122;2022-08-24T08:19:34;23.20;95.10
20489;DHT22;10403;54.092;12.122;2022-08-24T08:22:01;23.20;95.10
20489;DHT22;10403;54.092;12.122;2022-08-24T08:24:47;23.20;95.10
20489;DHT22;10403;54.092;12.122;2022-08-24T08:27:16;23.10;95.20
20489;DHT22;10403;54.092;12.122;2022-08-24T08:29:44;23.20;95.30
20489;DHT22;10403;54.092;12.122;2022-08-24T08:32:12;23.20;95.10
20489;DHT22;10403;54.092;12.122;2022-08-24T08:34:43;23.30;95.10
20489;DHT22;10403;54.092;12.122;2022-08-24T08:37:12;23.30;95.00
20489;DHT22;10403;54.092;12.122;2022-08-24T08:39:40;23.30;95.00
20489;DHT22;10403;54.092;12.122;2022-08-24T08:42:23;23.20;94.90
20489;DHT22;10403;54.092;12.122;2022-08-24T08:57:22;23.70;94.60
20489;DHT22;10403;54.092;12.122;2022-08-24T09:05:36;24.10;93.60
20489;DHT22;10403;54.092;12.122;2022-08-24T09:12:01;24.20;93.30
20489;DHT22;10403;54.092;12.122;2022-08-24T09:21:22;24.30;93.00
20489;DHT22;10403;54.092;12.122;2022-08-24T09:36:38;24.20;91.90
20489;DHT22;10403;54.092;12.122;2022-08-24T10:00:40;24.90;90.70
20489;DHT22;10403;54.092;12.122;2022-08-24T10:03:05;25.00;90.50
20489;DHT22;10403;54.092;12.122;2022-08-24T10:15:26;25.20;88.10
20489;DHT22;10403;54.092;12.122;2022-08-24T10:21:01;25.20;87.00
20489;DHT22;10403;54.092;12.122;2022-08-24T10:30:26;25.20;85.80
20489;DHT22;10403;54.092;12.122;2022-08-24T10:33:22;25.30;85.80
20489;DHT22;10403;54.092;12.122;2022-08-24T10:38:49;25.50;84.30
20489;DHT22;10403;54.092;12.122;2022-08-24T10:48:59;25.50;82.40
20489;DHT22;10403;54.092;12.122;2022-08-24T10:51:52;25.60;82.20
20489;DHT22;10403;54.092;12.122;2022-08-24T10:54:26;25.70;81.50
20489;DHT22;10403;54.092;12.122;2022-08-24T10:57:08;25.70;81.60
20489;DHT22;10403;54.092;12.122;2022-08-24T10:59:57;25.60;80.30
20489;DHT22;10403;54.092;12.122;2022-08-24T11:02:35;25.70;80.50
20489;DHT22;10403;54.092;12.122;2022-08-24T11:05:07;25.70;80.60
20489;DHT22;10403;54.092;12.122;2022-08-24T11:08:04;25.80;80.30
20489;DHT22;10403;54.092;12.122;2022-08-24T11:10:36;25.80;79.70
20489;DHT22;10403;54.092;12.122;2022-08-24T11:13:32;25.90;79.60
20489;DHT22;10403;54.092;12.122;2022-08-24T11:16:01;25.90;78.90
20489;DHT22;10403;54.092;12.122;2022-08-24T11:18:53;26.10;78.80
20489;DHT22;10403;54.092;12.122;2022-08-24T11:21:38;26.10;78.40
20489;DHT22;10403;54.092;12.122;2022-08-24T11:37:46;26.00;77.20
20489;DHT22;10403;54.092;12.122;2022-08-24T11:40:16;26.10;76.90
20489;DHT22;10403;54.092;12.122;2022-08-24T11:42:59;26.10;76.20
20489;DHT22;10403;54.092;12.122;2022-08-24T11:45:46;26.10;75.80
20489;DHT22;10403;54.092;12.122;2022-08-24T11:49:08;26.10;75.70
20489;DHT22;10403;54.092;12.122;2022-08-24T11:54:33;26.20;74.90
20489;DHT22;10403;54.092;12.122;2022-08-24T12:00:12;26.20;73.90
20489;DHT22;10403;54.092;12.122;2022-08-24T12:03:09;26.20;73.50
20489;DHT22;10403;54.092;12.122;2022-08-24T12:08:54;26.20;74.20
20489;DHT22;10403;54.092;12.122;2022-08-24T12:17:39;26.20;73.20
20489;DHT22;10403;54.092;12.122;2022-08-24T12:20:29;26.30;73.40
20489;DHT22;10403;54.092;12.122;2022-08-24T12:23:10;26.40;73.40
20489;DHT22;10403;54.092;12.122;2022-08-24T12:29:31;26.40;72.50
20489;DHT22;10403;54.092;12.122;2022-08-24T12:32:20;26.50;72.50
20489;DHT22;10403;54.092;12.122;2022-08-24T12:37:56;26.30;72.60
20489;DHT22;10403;54.092;12.122;2022-08-24T12:40:43;26.30;72.70
20489;DHT22;10403;54.092;12.122;2022-08-24T12:43:38;26.30;72.60
20489;DHT22;10403;54.092;12.122;2022-08-24T12:46:25;26.30;72.50
20489;DHT22;10403;54.092;12.122;2022-08-24T12:59:47;26.60;71.30
20489;DHT22;10403;54.092;12.122;2022-08-24T13:17:46;27.10;68.40
20489;DHT22;10403;54.092;12.122;2022-08-24T13:20:52;27.10;68.40
20489;DHT22;10403;54.092;12.122;2022-08-24T13:31:16;27.10;68.00
20489;DHT22;10403;54.092;12.122;2022-08-24T13:40:00;27.00;67.20
20489;DHT22;10403;54.092;12.122;2022-08-24T13:48:59;27.10;66.90
20489;DHT22;10403;54.092;12.122;2022-08-24T13:51:34;27.20;67.00
20489;DHT22;10403;54.092;12.122;2022-08-24T13:54:24;27.20;67.00
20489;DHT22;10403;54.092;12.122;2022-08-24T14:04:03;27.30;66.50
20489;DHT22;10403;54.092;12.122;2022-08-24T14:23:46;27.30;64.90
20489;DHT22;10403;54.092;12.122;2022-08-24T14:43:20;27.30;65.00
20489;DHT22;10403;54.092;12.122;2022-08-24T14:49:41;27.10;65.50
20489;DHT22;10403;54.092;12.122;2022-08-24T15:06:55;26.90;67.20
20489;DHT22;10403;54.092;12.122;2022-08-24T15:09:33;26.80;66.90
20489;DHT22;10403;54.092;12.122;2022-08-24T15:15:21;26.80;66.40
20489;DHT22;10403;54.092;12.122;2022-08-24T15:28:56;26.80;67.40
20489;DHT22;10403;54.092;12.122;2022-08-24T15:31:27;26.80;68.20
20489;DHT22;10403;54.092;12.122;2022-08-24T15:33:58;26.70;68.90
20489;DHT22;10403;54.092;12.122;2022-08-24T15:36:29;26.70;69.50
20489;DHT22;10403;54.092;12.122;2022-08-24T15:39:01;26.60;70.00
20489;DHT22;10403;54.092;12.122;2022-08-24T15:41:35;26.70;71.00
20489;DHT22;10403;54.092;12.122;2022-08-24T15:44:09;26.60;69.90
20489;DHT22;10403;54.092;12.122;2022-08-24T15:46:55;26.60;70.00
20489;DHT22;10403;54.092;12.122;2022-08-24T15:49:56;26.60;70.10
20489;DHT22;10403;54.092;12.122;2022-08-24T15:52:57;26.50;70.30
20489;DHT22;10403;54.092;12.122;2022-08-24T15:55:37;26.50;70.50
20489;DHT22;10403;54.092;12.122;2022-08-24T15:58:26;26.50;70.50
20489;DHT22;10403;54.092;12.122;2022-08-24T16:04:13;26.50;70.50
20489;DHT22;10403;54.092;12.122;2022-08-24T16:07:20;26.50;71.00
20489;DHT22;10403;54.092;12.122;2022-08-24T16:10:08;26.40;71.50
20489;DHT22;10403;54.092;12.122;2022-08-24T16:12:38;26.40;71.80
20489;DHT22;10403;54.092;12.122;2022-08-24T16:15:18;26.40;73.00
20489;DHT22;10403;54.092;12.122;2022-08-24T16:17:49;26.40;74.40
20489;DHT22;10403;54.092;12.122;2022-08-24T16:22:57;26.20;75.50
20489;DHT22;10403;54.092;12.122;2022-08-24T16:25:38;26.10;75.70
20489;DHT22;10403;54.092;12.122;2022-08-24T16:30:58;26.00;76.70
20489;DHT22;10403;54.092;12.122;2022-08-24T16:36:12;25.90;76.10
20489;DHT22;10403;54.092;12.122;2022-08-24T16:38:50;25.90;76.40
20489;DHT22;10403;54.092;12.122;2022-08-24T16:41:22;25.90;76.90
20489;DHT22;10403;54.092;12.122;2022-08-24T16:43:50;25.80;77.20
20489;DHT22;10403;54.092;12.122;2022-08-24T16:46:20;25.80;77.50
20489;DHT22;10403;54.092;12.122;2022-08-24T16:48:49;25.70;77.90
20489;DHT22;10403;54.092;12.122;2022-08-24T16:51:16;25.70;78.20
20489;DHT22;10403;54.092;12.122;2022-08-24T16:53:43;25.80;78.40
20489;DHT22;10403;54.092;12.122;2022-08-24T16:56:10;25.70;78.40
20489;DHT22;10403;54.092;12.122;2022-08-24T16:58:44;25.70;79.30
20489;DHT22;10403;54.092;12.122;2022-08-24T17:01:14;25.60;78.90
20489;DHT22;10403;54.092;12.122;2022-08-24T17:03:41;25.50;79.00
20489;DHT22;10403;54.092;12.122;2022-08-24T17:06:09;25.50;79.30
20489;DHT22;10403;54.092;12.122;2022-08-24T17:08:40;25.50;79.50
20489;DHT22;10403;54.092;12.122;2022-08-24T17:11:07;25.40;79.70
20489;DHT22;10403;54.092;12.122;2022-08-24T17:13:34;25.30;80.00
20489;DHT22;10403;54.092;12.122;2022-08-24T17:16:18;25.30;80.20
20489;DHT22;10403;54.092;12.122;2022-08-24T17:18:47;25.30;80.40
20489;DHT22;10403;54.092;12.122;2022-08-24T17:21:14;25.30;80.70
20489;DHT22;10403;54.092;12.122;2022-08-24T17:23:42;25.20;80.80
20489;DHT22;10403;54.092;12.122;2022-08-24T17:26:12;25.10;81.00
20489;DHT22;10403;54.092;12.122;2022-08-24T17:28:49;25.00;81.10
20489;DHT22;10403;54.092;12.122;2022-08-24T17:31:18;25.00;81.30
20489;DHT22;10403;54.092;12.122;2022-08-24T17:33:46;24.90;81.50
20489;DHT22;10403;54.092;12.122;2022-08-24T17:36:13;24.90;81.70
20489;DHT22;10403;54.092;12.122;2022-08-24T17:38:44;24.80;81.90
20489;DHT22;10403;54.092;12.122;2022-08-24T17:41:21;24.80;82.20
20489;DHT22;10403;54.092;12.122;2022-08-24T17:43:50;24.70;82.20
20489;DHT22;10403;54.092;12.122;2022-08-24T17:46:18;24.60;82.30
20489;DHT22;10403;54.092;12.122;2022-08-24T17:48:47;24.60;82.50
20489;DHT22;10403;54.092;12.122;2022-08-24T17:51:14;24.50;82.70
20489;DHT22;10403;54.092;12.122;2022-08-24T17:53:42;24.40;82.90
20489;DHT22;10403;54.092;12.122;2022-08-24T17:56:10;24.30;83.10
20489;DHT22;10403;54.092;12.122;2022-08-24T17:58:40;24.30;83.20
20489;DHT22;10403;54.092;12.122;2022-08-24T18:01:26;24.20;83.30
20489;DHT22;10403;54.092;12.122;2022-08-24T18:03:54;24.20;83.30
20489;DHT22;10403;54.092;12.122;2022-08-24T18:06:22;24.10;83.30
20489;DHT22;10403;54.092;12.122;2022-08-24T18:08:51;24.00;83.40
20489;DHT22;10403;54.092;12.122;2022-08-24T18:11:22;24.00;83.50
20489;DHT22;10403;54.092;12.122;2022-08-24T18:13:56;23.90;83.50
20489;DHT22;10403;54.092;12.122;2022-08-24T18:16:24;23.90;83.60
20489;DHT22;10403;54.092;12.122;2022-08-24T18:18:53;23.80;83.60
20489;DHT22;10403;54.092;12.122;2022-08-24T18:21:21;23.80;83.70
20489;DHT22;10403;54.092;12.122;2022-08-24T18:23:49;23.70;83.80
20489;DHT22;10403;54.092;12.122;2022-08-24T18:26:27;23.60;83.90
20489;DHT22;10403;54.092;12.122;2022-08-24T18:28:59;23.60;84.30
20489;DHT22;10403;54.092;12.122;2022-08-24T18:31:34;23.50;84.30
20489;DHT22;10403;54.092;12.122;2022-08-24T18:34:01;23.40;84.40
20489;DHT22;10403;54.092;12.122;2022-08-24T18:36:28;23.40;84.70
20489;DHT22;10403;54.092;12.122;2022-08-24T18:38:56;23.40;85.10
20489;DHT22;10403;54.092;12.122;2022-08-24T18:41:27;23.30;85.30
20489;DHT22;10403;54.092;12.122;2022-08-24T18:44:00;23.30;85.70
20489;DHT22;10403;54.092;12.122;2022-08-24T18:46:31;23.20;85.90
20489;DHT22;10403;54.092;12.122;2022-08-24T18:48:59;23.20;86.20
20489;DHT22;10403;54.092;12.122;2022-08-24T18:51:28;23.10;86.50
20489;DHT22;10403;54.092;12.122;2022-08-24T18:54:09;23.10;86.90
20489;DHT22;10403;54.092;12.122;2022-08-24T18:56:38;23.10;87.30
20489;DHT22;10403;54.092;12.122;2022-08-24T18:59:09;23.00;87.40
20489;DHT22;10403;54.092;12.122;2022-08-24T19:01:41;23.00;88.80
20489;DHT22;10403;54.092;12.122;2022-08-24T19:04:27;23.00;88.70
20489;DHT22;10403;54.092;12.122;2022-08-24T19:06:59;22.90;88.60
20489;DHT22;10403;54.092;12.122;2022-08-24T19:09:26;22.90;88.80
20489;DHT22;10403;54.092;12.122;2022-08-24T19:12:00;22.80;88.90
20489;DHT22;10403;54.092;12.122;2022-08-24T19:14:29;22.70;89.00
20489;DHT22;10403;54.092;12.122;2022-08-24T19:16:57;22.70;89.20
20489;DHT22;10403;54.092;12.122;2022-08-24T19:19:24;22.70;89.40
20489;DHT22;10403;54.092;12.122;2022-08-24T19:21:51;22.70;89.60
20489;DHT22;10403;54.092;12.122;2022-08-24T19:24:23;22.60;89.70
20489;DHT22;10403;54.092;12.122;2022-08-24T19:26:53;22.60;90.00
20489;DHT22;10403;54.092;12.122;2022-08-24T19:29:22;22.60;90.00
20489;DHT22;10403;54.092;12.122;2022-08-24T19:32:09;22.50;90.10
20489;DHT22;10403;54.092;12.122;2022-08-24T19:34:51;22.50;90.20
20489;DHT22;10403;54.092;12.122;2022-08-24T19:37:20;22.40;90.30
20489;DHT22;10403;54.092;12.122;2022-08-24T19:39:49;22.40;90.40
20489;DHT22;10403;54.092;12.122;2022-08-24T19:42:17;22.40;90.50
20489;DHT22;10403;54.092;12.122;2022-08-24T19:44:45;22.30;90.60
20489;DHT22;10403;54.092;12.122;2022-08-24T19:47:30;22.30;90.80
20489;DHT22;10403;54.092;12.122;2022-08-24T19:50:01;22.30;91.20
20489;DHT22;10403;54.092;12.122;2022-08-24T19:52:31;22.30;91.00
20489;DHT22;10403;54.092;12.122;2022-08-24T19:54:59;22.20;91.10
20489;DHT22;10403;54.092;12.122;2022-08-24T19:57:47;22.20;91.20
20489;DHT22;10403;54.092;12.122;2022-08-24T20:02:47;22.20;91.30
20489;DHT22;10403;54.092;12.122;2022-08-24T20:05:17;22.10;91.40
20489;DHT22;10403;54.092;12.122;2022-08-24T20:07:46;22.10;91.50
20489;DHT22;10403;54.092;12.122;2022-08-24T20:10:17;22.10;91.60
20489;DHT22;10403;54.092;12.122;2022-08-24T20:12:45;22.10;91.70